sensor_id;sensor_type;location;lat;lon;timestamp;P1;durP1;ratioP1;P2;durP2;ratioP2
73315;SDS011;61545;53.726;-0.444;2023-06-19T00:03:34;18.1;;;14;;
73315;SDS011;61545;53.726;-0.444;2023-06-19T00:08:34;16.8;;;13;;
73315;SDS011;61545;53.726;-0.444;2023-06-19T00:13:34;12.9;;;10.4;;
73315;SDS011;61545;53.726;-0.444;2023-06-19T00:18:34;11.8;;;9.7;;
73315;SDS011;61545;53.726;-0.444;2023-06-19T00:23:34;11.8;;;9.7;;
73315;SDS011;61545;53.726;-0.444;2023-06-19T00:28:33;15.7;;;11.7;;
73315;SDS011;61545;53.726;-0.444;2023-06-19T00:33:34;9.8;;;8.1;;
73315;SDS011;61545;53.726;-0.444;2023-06-19T00:38:33;8.8;;;7.3;;
73315;SDS011;61545;53.726;-0.444;2023-06-19T00:43:34;7.0;;;5.8;;
73315;SDS011;61545;53.726;-0.444;2023-06-19T00:48:34;8.3;;;4.8;;
73315;SDS011;61545;53.726;-0.444;2023-06-19T00:53:34;8.3;;;4.8;;
73315;SDS011;61545;53.726;-0.444;2023-06-19T00:58:33;6.0;;;4.4;;
73315;SDS011;61545;53.726;-0.444;2023-06-19T01:03:34;4.7;;;4;;
73315;SDS011;61545;53.726;-0.444;2023-06-19T01:08:42;5.6;;;4.5;;
73315;SDS011;61545;53.726;-0.444;2023-06-19T01:13:36;5.2;;;4.1;;
73315;SDS011;61545;53.726;-0.444;2023-06-19T01:18:33;6.3;;;4.3;;
73315;SDS011;61545;53.726;-0.444;2023-06-19T01:23:34;6.3;;;4.3;;
73315;SDS011;61545;53.726;-0.444;2023-06-19T01:28:34;5.8;;;4.4;;
73315;SDS011;61545;53.726;-0.444;2023-06-19T01:33:34;6.5;;;4.7;;
73315;SDS011;61545;53.726;-0.444;2023-06-19T01:38:34;6.9;;;5.3;;
73315;SDS011;61545;53.726;-0.444;2023-06-19T01:43:34;7.2;;;5.8;;
73315;SDS011;61545;53.726;-0.444;2023-06-19T01:48:34;8.5;;;5.5;;
73315;SDS011;61545;53.726;-0.444;2023-06-19T01:53:34;8.5;;;5.5;;
73315;SDS011;61545;53.726;-0.444;2023-06-19T01:58:33;7.6;;;5.4;;
73315;SDS011;61545;53.726;-0.444;2023-06-19T02:03:34;6.7;;;5.6;;
73315;SDS011;61545;53.726;-0.444;2023-06-19T02:08:33;6.1;;;5;;
73315;SDS011;61545;53.726;-0.444;2023-06-19T02:13:34;8.8;;;5.6;;
73315;SDS011;61545;53.726;-0.444;2023-06-19T02:18:33;9.2;;;5.6;;
73315;SDS011;61545;53.726;-0.444;2023-06-19T02:23:34;9.2;;;5.6;;
73315;SDS011;61545;53.726;-0.444;2023-06-19T02:28:33;7.3;;;5.9;;
73315;SDS011;61545;53.726;-0.444;2023-06-19T02:33:34;7.0;;;5.7;;
73315;SDS011;61545;53.726;-0.444;2023-06-19T02:38:33;9.4;;;6.3;;
73315;SDS011;61545;53.726;-0.444;2023-06-19T02:43:34;8.1;;;6.6;;
73315;SDS011;61545;53.726;-0.444;2023-06-19T02:48:34;8.6;;;7.2;;
73315;SDS011;61545;53.726;-0.444;2023-06-19T02:53:34;8.6;;;7.2;;
73315;SDS011;61545;53.726;-0.444;2023-06-19T02:58:33;10.0;;;7.3;;
73315;SDS011;61545;53.726;-0.444;2023-06-19T03:03:34;13.0;;;9;;
73315;SDS011;61545;53.726;-0.444;2023-06-19T03:08:34;10.2;;;8.5;;
73315;SDS011;61545;53.726;-0.444;2023-06-19T03:13:43;14.4;;;11.6;;
73315;SDS011;61545;53.726;-0.444;2023-06-19T03:18:33;15.4;;;11.3;;
73315;SDS011;61545;53.726;-0.444;2023-06-19T03:23:34;15.4;;;11.3;;
73315;SDS011;61545;53.726;-0.444;2023-06-19T03:28:33;9.6;;;7.9;;
73315;SDS011;61545;53.726;-0.444;2023-06-19T03:33:34;9.0;;;7.9;;
73315;SDS011;61545;53.726;-0.444;2023-06-19T03:38:33;14.5;;;11.1;;
73315;SDS011;61545;53.726;-0.444;2023-06-19T03:43:34;16.6;;;12.7;;
73315;SDS011;61545;53.726;-0.444;2023-06-19T03:48:33;13.7;;;10.4;;
73315;SDS011;61545;53.726;-0.444;2023-06-19T03:53:34;13.7;;;10.4;;
73315;SDS011;61545;53.726;-0.444;2023-06-19T03:58:33;20.6;;;13.4;;
73315;SDS011;61545;53.726;-0.444;2023-06-19T04:03:34;17.6;;;11.8;;
73315;SDS011;61545;53.726;-0.444;2023-06-19T04:08:33;16.9;;;12.4;;
73315;SDS011;61545;53.726;-0.444;2023-06-19T04:13:34;16.9;;;12.1;;
73315;SDS011;61545;53.726;-0.444;2023-06-19T04:18:33;20.2;;;14;;
73315;SDS011;61545;53.726;-0.444;2023-06-19T04:23:34;20.2;;;14;;
73315;SDS011;61545;53.726;-0.444;2023-06-19T04:28:33;18.1;;;12.8;;
73315;SDS011;61545;53.726;-0.444;2023-06-19T04:33:34;19.8;;;13.6;;
73315;SDS011;61545;53.726;-0.444;2023-06-19T04:38:34;14.3;;;10.5;;
73315;SDS011;61545;53.726;-0.444;2023-06-19T04:43:34;15.3;;;9.3;;
73315;SDS011;61545;53.726;-0.444;2023-06-19T04:48:34;15.6;;;11;;
73315;SDS011;61545;53.726;-0.444;2023-06-19T04:53:34;15.6;;;11;;
73315;SDS011;61545;53.726;-0.444;2023-06-19T04:58:34;12.7;;;8.9;;
73315;SDS011;61545;53.726;-0.444;2023-06-19T05:03:34;14.9;;;10.2;;
73315;SDS011;61545;53.726;-0.444;2023-06-19T05:08:34;12.9;;;8.8;;
73315;SDS011;61545;53.726;-0.444;2023-06-19T05:13:34;12.5;;;9.4;;
73315;SDS011;61545;53.726;-0.444;2023-06-19T05:18:34;10.1;;;7.1;;
73315;SDS011;61545;53.726;-0.444;2023-06-19T05:23:34;10.1;;;7.1;;
73315;SDS011;61545;53.726;-0.444;2023-06-19T05:28:34;14.5;;;9.2;;
73315;SDS011;61545;53.726;-0.444;2023-06-19T05:33:34;15.2;;;9.2;;
73315;SDS011;61545;53.726;-0.444;2023-06-19T05:38:33;13.9;;;9.6;;
73315;SDS011;61545;53.726;-0.444;2023-06-19T05:43:34;16.0;;;8;;
73315;SDS011;61545;53.726;-0.444;2023-06-19T05:48:34;12.5;;;8.5;;
73315;SDS011;61545;53.726;-0.444;2023-06-19T05:53:34;12.5;;;8.5;;
73315;SDS011;61545;53.726;-0.444;2023-06-19T05:58:34;17.5;;;8.8;;
73315;SDS011;61545;53.726;-0.444;2023-06-19T06:03:34;14.3;;;8.8;;
73315;SDS011;61545;53.726;-0.444;2023-06-19T06:08:34;14.9;;;8.7;;
73315;SDS011;61545;53.726;-0.444;2023-06-19T06:13:34;14.6;;;8.3;;
73315;SDS011;61545;53.726;-0.444;2023-06-19T06:18:34;14.6;;;8.3;;
73315;SDS011;61545;53.726;-0.444;2023-06-19T06:23:34;13.9;;;9;;
73315;SDS011;61545;53.726;-0.444;2023-06-19T06:28:34;14.4;;;8.5;;
73315;SDS011;61545;53.726;-0.444;2023-06-19T06:33:34;12.5;;;7.7;;
73315;SDS011;61545;53.726;-0.444;2023-06-19T06:38:34;9.5;;;6.8;;
73315;SDS011;61545;53.726;-0.444;2023-06-19T06:43:34;7.7;;;5.4;;
73315;SDS011;61545;53.726;-0.444;2023-06-19T06:48:34;7.7;;;5.4;;
73315;SDS011;61545;53.726;-0.444;2023-06-19T06:53:34;8.5;;;5.5;;
73315;SDS011;61545;53.726;-0.444;2023-06-19T06:58:34;9.5;;;5.6;;
73315;SDS011;61545;53.726;-0.444;2023-06-19T07:03:34;6.6;;;4.7;;
73315;SDS011;61545;53.726;-0.444;2023-06-19T07:08:34;10.0;;;6.2;;
73315;SDS011;61545;53.726;-0.444;2023-06-19T07:13:34;8.9;;;5.6;;
73315;SDS011;61545;53.726;-0.444;2023-06-19T07:18:34;8.9;;;5.6;;
73315;SDS011;61545;53.726;-0.444;2023-06-19T07:23:34;10.0;;;6.2;;
73315;SDS011;61545;53.726;-0.444;2023-06-19T07:28:34;11.3;;;6.7;;
73315;SDS011;61545;53.726;-0.444;2023-06-19T07:33:34;6.9;;;4.8;;
73315;SDS011;61545;53.726;-0.444;2023-06-19T07:38:34;9.7;;;5.9;;
73315;SDS011;61545;53.726;-0.444;2023-06-19T07:43:34;7.5;;;5.3;;
73315;SDS011;61545;53.726;-0.444;2023-06-19T07:48:34;7.5;;;5.3;;
73315;SDS011;61545;53.726;-0.444;2023-06-19T07:53:34;9.9;;;5.7;;
73315;SDS011;61545;53.726;-0.444;2023-06-19T07:58:33;9.5;;;5.5;;
73315;SDS011;61545;53.726;-0.444;2023-06-19T08:03:34;8.5;;;5.6;;
73315;SDS011;61545;53.726;-0.444;2023-06-19T08:08:34;8.3;;;4.8;;
73315;SDS011;61545;53.726;-0.444;2023-06-19T08:13:34;7.1;;;4.6;;
73315;SDS011;61545;53.726;-0.444;2023-06-19T08:18:34;7.1;;;4.6;;
73315;SDS011;61545;53.726;-0.444;2023-06-19T08:23:34;10.6;;;4.7;;
73315;SDS011;61545;53.726;-0.444;2023-06-19T08:28:34;8.0;;;4.5;;
73315;SDS011;61545;53.726;-0.444;2023-06-19T08:33:34;5.8;;;3.8;;
73315;SDS011;61545;53.726;-0.444;2023-06-19T08:38:34;7.2;;;4.6;;
73315;SDS011;61545;53.726;-0.444;2023-06-19T08:43:34;8.9;;;4.3;;
73315;SDS011;61545;53.726;-0.444;2023-06-19T08:48:34;8.9;;;4.3;;
73315;SDS011;61545;53.726;-0.444;2023-06-19T08:53:35;8.5;;;5;;
73315;SDS011;61545;53.726;-0.444;2023-06-19T08:58:34;7.4;;;4.5;;
73315;SDS011;61545;53.726;-0.444;2023-06-19T09:03:34;6.2;;;4;;
73315;SDS011;61545;53.726;-0.444;2023-06-19T09:08:34;6.6;;;3.8;;
73315;SDS011;61545;53.726;-0.444;2023-06-19T09:13:34;7.7;;;4.8;;
73315;SDS011;61545;53.726;-0.444;2023-06-19T09:18:43;7.7;;;4.8;;
73315;SDS011;61545;53.726;-0.444;2023-06-19T09:23:34;8.0;;;4.6;;
73315;SDS011;61545;53.726;-0.444;2023-06-19T09:28:39;7.6;;;4.4;;
73315;SDS011;61545;53.726;-0.444;2023-06-19T09:33:34;5.4;;;4;;
73315;SDS011;61545;53.726;-0.444;2023-06-19T09:38:35;9.0;;;4.1;;
73315;SDS011;61545;53.726;-0.444;2023-06-19T09:43:36;7.7;;;3.8;;
73315;SDS011;61545;53.726;-0.444;2023-06-19T09:48:34;7.7;;;3.8;;
73315;SDS011;61545;53.726;-0.444;2023-06-19T09:53:34;4.7;;;3.3;;
73315;SDS011;61545;53.726;-0.444;2023-06-19T09:58:34;7.1;;;3.7;;
73315;SDS011;61545;53.726;-0.444;2023-06-19T10:03:34;8.1;;;4.3;;
73315;SDS011;61545;53.726;-0.444;2023-06-19T10:08:39;9.3;;;4;;
73315;SDS011;61545;53.726;-0.444;2023-06-19T10:13:34;8.0;;;3.9;;
73315;SDS011;61545;53.726;-0.444;2023-06-19T10:18:44;8.0;;;3.9;;
73315;SDS011;61545;53.726;-0.444;2023-06-19T10:23:36;6.3;;;3.4;;
73315;SDS011;61545;53.726;-0.444;2023-06-19T10:28:34;6.5;;;3.5;;
73315;SDS011;61545;53.726;-0.444;2023-06-19T10:33:35;7.6;;;3.6;;
73315;SDS011;61545;53.726;-0.444;2023-06-19T10:38:34;8.7;;;4.2;;
73315;SDS011;61545;53.726;-0.444;2023-06-19T10:43:34;6.9;;;3.8;;
73315;SDS011;61545;53.726;-0.444;2023-06-19T10:48:34;6.9;;;3.8;;
73315;SDS011;61545;53.726;-0.444;2023-06-19T10:53:34;7.3;;;3.7;;
73315;SDS011;61545;53.726;-0.444;2023-06-19T10:58:34;8.3;;;3.9;;
73315;SDS011;61545;53.726;-0.444;2023-06-19T11:03:34;7.1;;;3.7;;
73315;SDS011;61545;53.726;-0.444;2023-06-19T11:08:34;7.0;;;3.3;;
73315;SDS011;61545;53.726;-0.444;2023-06-19T11:13:34;8.8;;;4;;
73315;SDS011;61545;53.726;-0.444;2023-06-19T11:18:34;8.8;;;4;;
73315;SDS011;61545;53.726;-0.444;2023-06-19T11:23:34;7.4;;;3.6;;
73315;SDS011;61545;53.726;-0.444;2023-06-19T11:28:34;7.2;;;3.3;;
73315;SDS011;61545;53.726;-0.444;2023-06-19T11:33:34;3.7;;;2.7;;
73315;SDS011;61545;53.726;-0.444;2023-06-19T11:38:35;6.4;;;3.2;;
73315;SDS011;61545;53.726;-0.444;2023-06-19T11:43:34;6.4;;;3.4;;
73315;SDS011;61545;53.726;-0.444;2023-06-19T11:48:36;6.4;;;3.4;;
73315;SDS011;61545;53.726;-0.444;2023-06-19T11:53:34;6.4;;;3.4;;
73315;SDS011;61545;53.726;-0.444;2023-06-19T11:58:34;4.6;;;3.3;;
73315;SDS011;61545;53.726;-0.444;2023-06-19T12:03:34;6.4;;;3.4;;
73315;SDS011;61545;53.726;-0.444;2023-06-19T12:08:34;7.7;;;3.5;;
73315;SDS011;61545;53.726;-0.444;2023-06-19T12:13:34;7.3;;;3.6;;
73315;SDS011;61545;53.726;-0.444;2023-06-19T12:18:34;7.3;;;3.6;;
73315;SDS011;61545;53.726;-0.444;2023-06-19T12:23:34;11.1;;;4.5;;
73315;SDS011;61545;53.726;-0.444;2023-06-19T12:28:34;6.8;;;4.3;;
73315;SDS011;61545;53.726;-0.444;2023-06-19T12:33:34;6.3;;;3.7;;
73315;SDS011;61545;53.726;-0.444;2023-06-19T12:38:34;6.4;;;4;;
73315;SDS011;61545;53.726;-0.444;2023-06-19T12:43:34;6.5;;;4;;
73315;SDS011;61545;53.726;-0.444;2023-06-19T12:48:34;6.5;;;4;;
73315;SDS011;61545;53.726;-0.444;2023-06-19T12:53:34;6.0;;;4;;
73315;SDS011;61545;53.726;-0.444;2023-06-19T12:58:34;7.5;;;4.4;;
73315;SDS011;61545;53.726;-0.444;2023-06-19T13:03:34;8.2;;;4.2;;
73315;SDS011;61545;53.726;-0.444;2023-06-19T13:08:34;6.6;;;4;;
73315;SDS011;61545;53.726;-0.444;2023-06-19T13:13:34;6.7;;;3.8;;
73315;SDS011;61545;53.726;-0.444;2023-06-19T13:18:34;6.7;;;3.8;;
73315;SDS011;61545;53.726;-0.444;2023-06-19T13:23:34;6.6;;;4;;
73315;SDS011;61545;53.726;-0.444;2023-06-19T13:28:34;9.8;;;3.9;;
73315;SDS011;61545;53.726;-0.444;2023-06-19T13:33:34;7.8;;;4.2;;
73315;SDS011;61545;53.726;-0.444;2023-06-19T13:38:34;5.5;;;3.6;;
73315;SDS011;61545;53.726;-0.444;2023-06-19T13:43:34;7.1;;;3.3;;
73315;SDS011;61545;53.726;-0.444;2023-06-19T13:48:34;7.1;;;3.3;;
73315;SDS011;61545;53.726;-0.444;2023-06-19T13:53:34;5.5;;;3.5;;
73315;SDS011;61545;53.726;-0.444;2023-06-19T13:58:34;6.3;;;3.7;;
73315;SDS011;61545;53.726;-0.444;2023-06-19T14:03:35;8.1;;;3.8;;
73315;SDS011;61545;53.726;-0.444;2023-06-19T14:08:34;7.0;;;3.9;;
73315;SDS011;61545;53.726;-0.444;2023-06-19T14:13:34;5.9;;;3.6;;
73315;SDS011;61545;53.726;-0.444;2023-06-19T14:18:34;5.9;;;3.6;;
73315;SDS011;61545;53.726;-0.444;2023-06-19T14:23:34;5.2;;;3.4;;
73315;SDS011;61545;53.726;-0.444;2023-06-19T14:28:34;4.9;;;3.1;;
73315;SDS011;61545;53.726;-0.444;2023-06-19T14:33:34;4.9;;;3.3;;
73315;SDS011;61545;53.726;-0.444;2023-06-19T14:38:34;4.9;;;2.8;;
73315;SDS011;61545;53.726;-0.444;2023-06-19T14:43:34;6.6;;;3.1;;
73315;SDS011;61545;53.726;-0.444;2023-06-19T14:48:34;6.6;;;3.1;;
73315;SDS011;61545;53.726;-0.444;2023-06-19T14:53:34;6.8;;;3.4;;
73315;SDS011;61545;53.726;-0.444;2023-06-19T14:58:34;6.4;;;3.2;;
73315;SDS011;61545;53.726;-0.444;2023-06-19T15:03:34;6.3;;;2.7;;
73315;SDS011;61545;53.726;-0.444;2023-06-19T15:08:34;5.0;;;2.6;;
73315;SDS011;61545;53.726;-0.444;2023-06-19T15:13:34;4.6;;;2.5;;
73315;SDS011;61545;53.726;-0.444;2023-06-19T15:18:34;4.6;;;2.5;;
73315;SDS011;61545;53.726;-0.444;2023-06-19T15:23:34;8.4;;;2.9;;
73315;SDS011;61545;53.726;-0.444;2023-06-19T15:28:34;5.4;;;2.6;;
73315;SDS011;61545;53.726;-0.444;2023-06-19T15:33:34;4.3;;;2.4;;
73315;SDS011;61545;53.726;-0.444;2023-06-19T15:38:34;5.3;;;2.7;;
73315;SDS011;61545;53.726;-0.444;2023-06-19T15:43:34;6.4;;;3;;
73315;SDS011;61545;53.726;-0.444;2023-06-19T15:48:34;6.4;;;3;;
73315;SDS011;61545;53.726;-0.444;2023-06-19T15:53:34;6.2;;;3.1;;
73315;SDS011;61545;53.726;-0.444;2023-06-19T15:58:34;4.9;;;2.6;;
73315;SDS011;61545;53.726;-0.444;2023-06-19T16:03:34;9.8;;;2.9;;
73315;SDS011;61545;53.726;-0.444;2023-06-19T16:08:34;4.4;;;2.8;;
73315;SDS011;61545;53.726;-0.444;2023-06-19T16:13:34;6.2;;;2.8;;
73315;SDS011;61545;53.726;-0.444;2023-06-19T16:18:34;6.2;;;2.8;;
73315;SDS011;61545;53.726;-0.444;2023-06-19T16:23:34;5.9;;;3.3;;
73315;SDS011;61545;53.726;-0.444;2023-06-19T16:28:34;5.3;;;2.8;;
73315;SDS011;61545;53.726;-0.444;2023-06-19T16:33:34;5.2;;;2.8;;
73315;SDS011;61545;53.726;-0.444;2023-06-19T16:38:34;6.0;;;3;;
73315;SDS011;61545;53.726;-0.444;2023-06-19T16:43:34;7.7;;;2.8;;
73315;SDS011;61545;53.726;-0.444;2023-06-19T16:48:34;7.7;;;2.8;;
73315;SDS011;61545;53.726;-0.444;2023-06-19T16:53:34;5.2;;;2.9;;
73315;SDS011;61545;53.726;-0.444;2023-06-19T16:58:34;5.1;;;2.5;;
73315;SDS011;61545;53.726;-0.444;2023-06-19T17:03:34;8.2;;;3;;
73315;SDS011;61545;53.726;-0.444;2023-06-19T17:08:34;3.7;;;2.6;;
73315;SDS011;61545;53.726;-0.444;2023-06-19T17:13:34;8.4;;;2.8;;
73315;SDS011;61545;53.726;-0.444;2023-06-19T17:18:34;8.4;;;2.8;;
73315;SDS011;61545;53.726;-0.444;2023-06-19T17:23:34;7.7;;;2.7;;
73315;SDS011;61545;53.726;-0.444;2023-06-19T17:28:34;5.7;;;2.8;;
73315;SDS011;61545;53.726;-0.444;2023-06-19T17:33:34;6.1;;;2.7;;
73315;SDS011;61545;53.726;-0.444;2023-06-19T17:38:34;4.0;;;2.5;;
73315;SDS011;61545;53.726;-0.444;2023-06-19T17:43:34;8.0;;;2.6;;
73315;SDS011;61545;53.726;-0.444;2023-06-19T17:48:34;8.0;;;2.6;;
73315;SDS011;61545;53.726;-0.444;2023-06-19T17:53:34;4.5;;;2.8;;
73315;SDS011;61545;53.726;-0.444;2023-06-19T17:58:34;4.9;;;3;;
73315;SDS011;61545;53.726;-0.444;2023-06-19T18:03:34;5.8;;;2.9;;
73315;SDS011;61545;53.726;-0.444;2023-06-19T18:08:34;5.9;;;2.8;;
73315;SDS011;61545;53.726;-0.444;2023-06-19T18:13:34;4.0;;;2.5;;
73315;SDS011;61545;53.726;-0.444;2023-06-19T18:18:34;4.0;;;2.5;;
73315;SDS011;61545;53.726;-0.444;2023-06-19T18:23:34;6.2;;;2.6;;
73315;SDS011;61545;53.726;-0.444;2023-06-19T18:28:34;4.9;;;2.4;;
73315;SDS011;61545;53.726;-0.444;2023-06-19T18:33:34;5.3;;;2.3;;
73315;SDS011;61545;53.726;-0.444;2023-06-19T18:38:34;3.7;;;2.5;;
73315;SDS011;61545;53.726;-0.444;2023-06-19T18:43:34;4.0;;;2.3;;
73315;SDS011;61545;53.726;-0.444;2023-06-19T18:48:34;4.0;;;2.3;;
73315;SDS011;61545;53.726;-0.444;2023-06-19T18:53:34;6.5;;;2.7;;
73315;SDS011;61545;53.726;-0.444;2023-06-19T18:58:34;4.5;;;2.5;;
73315;SDS011;61545;53.726;-0.444;2023-06-19T19:03:34;4.4;;;2;;
73315;SDS011;61545;53.726;-0.444;2023-06-19T19:08:34;3.7;;;2.4;;
73315;SDS011;61545;53.726;-0.444;2023-06-19T19:13:34;3.7;;;2.4;;
73315;SDS011;61545;53.726;-0.444;2023-06-19T19:18:34;3.5;;;2.3;;
73315;SDS011;61545;53.726;-0.444;2023-06-19T19:23:34;3.7;;;2.3;;
73315;SDS011;61545;53.726;-0.444;2023-06-19T19:28:34;4.2;;;2.2;;
73315;SDS011;61545;53.726;-0.444;2023-06-19T19:33:34;5.0;;;2.4;;
73315;SDS011;61545;53.726;-0.444;2023-06-19T19:38:34;4.7;;;2.3;;
73315;SDS011;61545;53.726;-0.444;2023-06-19T19:43:34;4.7;;;2.3;;
73315;SDS011;61545;53.726;-0.444;2023-06-19T19:48:34;5.4;;;2.4;;
73315;SDS011;61545;53.726;-0.444;2023-06-19T19:53:34;4.8;;;2.2;;
73315;SDS011;61545;53.726;-0.444;2023-06-19T19:58:35;4.0;;;2.2;;
73315;SDS011;61545;53.726;-0.444;2023-06-19T20:03:34;3.3;;;2.2;;
73315;SDS011;61545;53.726;-0.444;2023-06-19T20:08:34;4.8;;;2.6;;
73315;SDS011;61545;53.726;-0.444;2023-06-19T20:13:34;4.8;;;2.6;;
73315;SDS011;61545;53.726;-0.444;2023-06-19T20:18:34;4.4;;;2.2;;
73315;SDS011;61545;53.726;-0.444;2023-06-19T20:23:34;4.2;;;2.4;;
73315;SDS011;61545;53.726;-0.444;2023-06-19T20:28:34;7.7;;;2.9;;
73315;SDS011;61545;53.726;-0.444;2023-06-19T20:33:34;7.9;;;2.8;;
73315;SDS011;61545;53.726;-0.444;2023-06-19T20:38:34;6.9;;;2.8;;
73315;SDS011;61545;53.726;-0.444;2023-06-19T20:43:34;6.9;;;2.8;;
73315;SDS011;61545;53.726;-0.444;2023-06-19T20:48:34;5.7;;;2.7;;
73315;SDS011;61545;53.726;-0.444;2023-06-19T20:53:34;6.6;;;2.9;;
73315;SDS011;61545;53.726;-0.444;2023-06-19T20:58:34;5.3;;;2.6;;
73315;SDS011;61545;53.726;-0.444;2023-06-19T21:03:34;6.9;;;2.7;;
73315;SDS011;61545;53.726;-0.444;2023-06-19T21:08:34;5.5;;;2.6;;
73315;SDS011;61545;53.726;-0.444;2023-06-19T21:13:34;5.5;;;2.6;;
73315;SDS011;61545;53.726;-0.444;2023-06-19T21:18:35;7.1;;;2.7;;
73315;SDS011;61545;53.726;-0.444;2023-06-19T21:23:34;5.1;;;2.7;;
73315;SDS011;61545;53.726;-0.444;2023-06-19T21:28:34;6.6;;;3;;
73315;SDS011;61545;53.726;-0.444;2023-06-19T21:33:34;5.0;;;3.1;;
73315;SDS011;61545;53.726;-0.444;2023-06-19T21:38:34;6.3;;;3;;
73315;SDS011;61545;53.726;-0.444;2023-06-19T21:43:34;6.3;;;3;;
73315;SDS011;61545;53.726;-0.444;2023-06-19T21:48:34;7.2;;;3.4;;
73315;SDS011;61545;53.726;-0.444;2023-06-19T21:53:34;8.5;;;3.2;;
73315;SDS011;61545;53.726;-0.444;2023-06-19T21:58:34;5.2;;;3;;
73315;SDS011;61545;53.726;-0.444;2023-06-19T22:03:34;6.5;;;3.2;;
73315;SDS011;61545;53.726;-0.444;2023-06-19T22:08:34;8.2;;;3.3;;
73315;SDS011;61545;53.726;-0.444;2023-06-19T22:13:34;8.2;;;3.3;;
73315;SDS011;61545;53.726;-0.444;2023-06-19T22:18:34;6.2;;;3.1;;
73315;SDS011;61545;53.726;-0.444;2023-06-19T22:23:34;8.0;;;3.4;;
73315;SDS011;61545;53.726;-0.444;2023-06-19T22:28:34;7.2;;;3.3;;
73315;SDS011;61545;53.726;-0.444;2023-06-19T22:33:34;7.2;;;3.7;;
73315;SDS011;61545;53.726;-0.444;2023-06-19T22:38:34;6.5;;;3.5;;
73315;SDS011;61545;53.726;-0.444;2023-06-19T22:43:34;6.5;;;3.5;;
73315;SDS011;61545;53.726;-0.444;2023-06-19T22:48:34;5.9;;;3.5;;
73315;SDS011;61545;53.726;-0.444;2023-06-19T22:53:34;8.7;;;3.6;;
73315;SDS011;61545;53.726;-0.444;2023-06-19T22:58:34;9.5;;;3.8;;
73315;SDS011;61545;53.726;-0.444;2023-06-19T23:03:34;8.8;;;3.9;;
73315;SDS011;61545;53.726;-0.444;2023-06-19T23:08:34;10.1;;;4.3;;
73315;SDS011;61545;53.726;-0.444;2023-06-19T23:13:34;10.1;;;4.3;;
73315;SDS011;61545;53.726;-0.444;2023-06-19T23:18:34;8.2;;;4.6;;
73315;SDS011;61545;53.726;-0.444;2023-06-19T23:23:34;8.2;;;4.3;;
73315;SDS011;61545;53.726;-0.444;2023-06-19T23:28:34;7.7;;;4.2;;
73315;SDS011;61545;53.726;-0.444;2023-06-19T23:33:34;9.0;;;4.1;;
73315;SDS011;61545;53.726;-0.444;2023-06-19T23:38:34;9.5;;;3.9;;
73315;SDS011;61545;53.726;-0.444;2023-06-19T23:43:34;9.5;;;3.9;;
73315;SDS011;61545;53.726;-0.444;2023-06-19T23:48:34;7.9;;;4.2;;
73315;SDS011;61545;53.726;-0.444;2023-06-19T23:53:34;12.6;;;4.3;;
73315;SDS011;61545;53.726;-0.444;2023-06-19T23:58:34;9.3;;;4.2;;
